createdAt,value
2022-08-26T00:00:54.583Z,24.27
2022-08-26T00:03:24.468Z,19.67
2022-08-26T00:05:53.084Z,15.90
2022-08-26T00:08:22.266Z,23.15
2022-08-26T00:10:51.554Z,21.55
2022-08-26T00:13:20.375Z,19.65
2022-08-26T00:15:51.166Z,19.42
2022-08-26T00:18:22.165Z,20.38
2022-08-26T00:20:51.662Z,19.17
2022-08-26T00:23:20.464Z,21.58
2022-08-26T00:25:53.866Z,19.52
2022-08-26T00:28:22.686Z,16.50
2022-08-26T00:30:52.614Z,25.63
2022-08-26T00:33:23.024Z,23.33
2022-08-26T00:35:51.690Z,16.27
2022-08-26T00:38:22.195Z,21.65
2022-08-26T00:40:53.944Z,22.23
2022-08-26T00:46:00.305Z,23.58
2022-08-26T00:48:32.145Z,19.42
2022-08-26T00:51:20.943Z,19.15
2022-08-26T00:53:52.125Z,25.70
2022-08-26T00:56:35.810Z,20.63
2022-08-26T00:59:06.824Z,28.08
2022-08-26T01:01:36.251Z,20.83
2022-08-26T01:04:04.986Z,21.20
2022-08-26T01:06:34.542Z,27.38
2022-08-26T01:09:03.764Z,17.38
2022-08-26T01:11:32.888Z,25.85
2022-08-26T01:14:02.828Z,16.50
2022-08-26T01:16:33.276Z,22.38
2022-08-26T01:19:04.374Z,20.58
2022-08-26T01:25:56.545Z,22.50
2022-08-26T01:28:27.081Z,22.05
2022-08-26T01:30:56.781Z,23.35
2022-08-26T01:33:40.001Z,21.90
2022-08-26T01:36:11.305Z,26.05
2022-08-26T01:38:40.839Z,21.15
2022-08-26T01:41:14.158Z,22.63
2022-08-26T01:43:49.919Z,25.23
2022-08-26T01:46:19.089Z,25.23
2022-08-26T01:48:48.405Z,18.70
2022-08-26T01:51:25.176Z,20.38
2022-08-26T01:53:53.778Z,18.73
2022-08-26T01:56:23.905Z,25.17
2022-08-26T01:58:54.153Z,18.73
2022-08-26T02:01:24.322Z,29.38
2022-08-26T02:04:17.007Z,19.50
2022-08-26T02:06:46.675Z,20.48
2022-08-26T02:09:16.454Z,16.95
2022-08-26T02:11:45.407Z,24.60
2022-08-26T02:14:35.152Z,25.73
2022-08-26T02:17:13.217Z,26.73
2022-08-26T02:19:43.611Z,26.48
2022-08-26T02:22:16.122Z,23.45
2022-08-26T02:24:52.889Z,24.88
2022-08-26T02:27:23.930Z,20.23
2022-08-26T02:29:55.527Z,24.20
2022-08-26T02:32:24.523Z,20.17
2022-08-26T02:34:53.271Z,23.58
2022-08-26T02:37:23.006Z,20.40
2022-08-26T02:39:51.682Z,17.50
2022-08-26T02:42:20.831Z,20.20
2022-08-26T02:44:50.214Z,22.75
2022-08-26T02:47:18.998Z,19.17
2022-08-26T02:49:47.811Z,24.70
2022-08-26T02:52:17.426Z,23.08
2022-08-26T02:54:46.953Z,18.10
2022-08-26T02:59:47.856Z,20.15
2022-08-26T03:02:17.358Z,21.60
2022-08-26T03:04:57.358Z,21.65
2022-08-26T03:07:29.584Z,21.17
2022-08-26T03:09:59.102Z,17.17
2022-08-26T03:12:28.043Z,21.83
2022-08-26T03:14:56.500Z,21.15
2022-08-26T03:17:25.225Z,16.50
2022-08-26T03:19:57.269Z,17.58
2022-08-26T03:22:27.099Z,28.25
2022-08-26T03:24:56.084Z,24.60
2022-08-26T03:27:24.488Z,18.35
2022-08-26T03:30:11.811Z,22.13
2022-08-26T03:32:41.494Z,28.88
2022-08-26T03:35:10.668Z,24.20
2022-08-26T03:37:39.337Z,20.40
2022-08-26T03:40:10.369Z,18.58
2022-08-26T03:42:39.997Z,23.67
2022-08-26T03:45:10.654Z,20.08
2022-08-26T03:47:39.876Z,18.00
2022-08-26T03:50:09.806Z,24.17
2022-08-26T03:52:43.021Z,23.52
2022-08-26T03:55:13.022Z,23.70
2022-08-26T03:57:42.795Z,19.83
2022-08-26T04:00:14.909Z,23.00
2022-08-26T04:02:48.827Z,22.48
2022-08-26T04:05:18.353Z,23.90
2022-08-26T04:07:47.417Z,23.02
2022-08-26T04:10:20.116Z,21.75
2022-08-26T04:12:49.587Z,21.08
2022-08-26T04:15:18.668Z,18.80
2022-08-26T04:17:47.686Z,17.48
2022-08-26T04:20:18.290Z,17.27
2022-08-26T04:22:47.413Z,21.23
2022-08-26T04:25:16.723Z,25.20
2022-08-26T04:27:45.472Z,22.02
2022-08-26T04:30:17.711Z,20.23
2022-08-26T04:32:46.892Z,18.00
2022-08-26T04:35:15.686Z,19.35
2022-08-26T04:37:46.075Z,18.08
2022-08-26T04:40:15.025Z,22.00
2022-08-26T04:42:44.402Z,21.15
2022-08-26T04:45:14.098Z,20.95
2022-08-26T04:47:43.505Z,17.38
2022-08-26T04:50:12.764Z,19.38
2022-08-26T04:52:42.687Z,22.13
2022-08-26T04:55:11.672Z,15.98
2022-08-26T04:57:40.547Z,15.93
2022-08-26T05:00:12.778Z,13.70
2022-08-26T05:02:41.262Z,19.02
2022-08-26T05:05:11.486Z,19.58
2022-08-26T05:07:39.811Z,19.05
2022-08-26T05:10:08.832Z,17.13
2022-08-26T05:12:37.174Z,16.15
2022-08-26T05:15:06.130Z,20.42
2022-08-26T05:17:34.089Z,21.77
2022-08-26T05:20:01.717Z,18.90
2022-08-26T05:22:29.001Z,16.48
2022-08-26T05:24:56.686Z,19.15
2022-08-26T05:27:24.151Z,16.38
2022-08-26T05:29:54.625Z,14.82
2022-08-26T05:32:22.685Z,13.45
2022-08-26T05:34:55.393Z,20.48
2022-08-26T05:37:23.148Z,16.80
2022-08-26T05:39:51.532Z,18.48
2022-08-26T05:42:20.063Z,17.90
2022-08-26T05:44:54.000Z,18.85
2022-08-26T05:47:24.550Z,17.25
2022-08-26T05:49:52.462Z,22.15
2022-08-26T05:52:20.318Z,14.38
2022-08-26T05:54:48.532Z,18.38
2022-08-26T05:57:17.131Z,19.80
2022-08-26T05:59:46.266Z,15.33
2022-08-26T06:02:13.767Z,19.92
2022-08-26T06:04:42.067Z,21.55
2022-08-26T06:07:11.514Z,15.93
2022-08-26T06:09:39.604Z,28.93
2022-08-26T06:12:07.705Z,27.70
2022-08-26T06:14:36.130Z,22.33
2022-08-26T06:17:09.649Z,18.40
2022-08-26T06:19:38.152Z,17.13
2022-08-26T06:22:29.840Z,20.73
2022-08-26T06:25:16.278Z,16.17
2022-08-26T06:27:44.802Z,20.05
2022-08-26T06:30:13.423Z,19.58
2022-08-26T06:32:41.835Z,21.63
2022-08-26T06:35:12.284Z,23.98
2022-08-26T06:37:41.203Z,20.55
2022-08-26T06:40:09.898Z,17.17
2022-08-26T06:42:40.220Z,15.77
2022-08-26T06:45:08.885Z,18.45
2022-08-26T06:47:37.383Z,17.45
2022-08-26T06:50:06.006Z,20.35
2022-08-26T06:52:34.115Z,17.20
2022-08-26T06:55:03.291Z,18.90
2022-08-26T06:57:32.926Z,18.25
2022-08-26T07:00:04.010Z,14.68
2022-08-26T07:02:32.570Z,16.00
2022-08-26T07:05:00.242Z,14.90
2022-08-26T07:07:29.559Z,18.02
2022-08-26T07:09:58.437Z,17.92
2022-08-26T07:12:27.080Z,17.83
2022-08-26T07:14:55.737Z,21.08
2022-08-26T07:17:26.317Z,18.70
2022-08-26T07:19:54.548Z,15.32
2022-08-26T07:22:21.799Z,15.02
2022-08-26T07:24:49.465Z,15.63
2022-08-26T07:27:17.541Z,15.90
2022-08-26T07:29:45.296Z,18.20
2022-08-26T07:32:15.165Z,16.08
2022-08-26T07:34:43.384Z,14.77
2022-08-26T07:37:10.984Z,15.93
2022-08-26T07:39:38.702Z,15.52
2022-08-26T07:42:09.149Z,15.80
2022-08-26T07:44:37.988Z,18.90
2022-08-26T07:47:10.385Z,17.83
2022-08-26T07:49:56.037Z,13.95
2022-08-26T07:52:28.889Z,17.90
2022-08-26T07:54:58.155Z,12.85
2022-08-26T07:57:27.862Z,16.63
2022-08-26T08:02:25.185Z,13.32
2022-08-26T08:04:54.523Z,12.45
2022-08-26T08:07:44.979Z,16.80
2022-08-26T08:10:21.058Z,17.48
2022-08-26T08:12:50.537Z,12.57
2022-08-26T08:15:20.631Z,14.80
2022-08-26T08:17:50.495Z,19.02
2022-08-26T08:20:19.400Z,12.93
2022-08-26T08:22:46.900Z,15.20
2022-08-26T08:25:14.846Z,17.08
2022-08-26T08:27:45.208Z,22.08
2022-08-26T08:30:14.362Z,22.10
2022-08-26T08:32:43.722Z,13.60
2022-08-26T08:37:40.374Z,15.60
2022-08-26T08:40:09.810Z,18.75
2022-08-26T08:42:45.873Z,17.25
2022-08-26T08:45:30.464Z,18.08
2022-08-26T08:48:01.967Z,19.73
2022-08-26T08:50:35.182Z,16.38
2022-08-26T08:53:03.131Z,16.92
2022-08-26T08:55:39.784Z,14.70
2022-08-26T08:58:10.293Z,15.10
2022-08-26T09:00:49.986Z,19.33
2022-08-26T09:03:25.264Z,12.82
2022-08-26T09:05:54.631Z,13.80
2022-08-26T09:08:27.501Z,9.88
2022-08-26T09:10:57.943Z,16.63
2022-08-26T09:13:27.653Z,13.45
2022-08-26T09:15:58.081Z,14.23
2022-08-26T09:18:34.334Z,17.77
2022-08-26T09:21:04.849Z,14.98
2022-08-26T09:23:34.055Z,13.93
2022-08-26T09:26:13.413Z,9.77
2022-08-26T09:28:42.588Z,10.63
2022-08-26T09:31:13.668Z,10.77
2022-08-26T09:33:41.758Z,12.85
2022-08-26T09:36:14.604Z,9.38
2022-08-26T09:38:42.911Z,13.90
2022-08-26T09:41:22.069Z,12.98
2022-08-26T09:44:08.694Z,10.90
2022-08-26T09:46:52.305Z,16.95
2022-08-26T09:49:36.433Z,14.52
2022-08-26T09:52:14.478Z,11.43
2022-08-26T09:54:44.339Z,14.32
2022-08-26T09:57:16.962Z,13.90
2022-08-26T09:59:45.509Z,12.38
2022-08-26T10:02:17.454Z,12.70
2022-08-26T10:04:54.857Z,13.10
2022-08-26T10:07:44.064Z,11.75
2022-08-26T10:10:21.436Z,16.02
2022-08-26T10:13:11.927Z,16.63
2022-08-26T10:15:56.052Z,10.65
2022-08-26T10:18:34.085Z,14.32
2022-08-26T10:21:30.658Z,14.70
2022-08-26T10:24:01.945Z,14.40
2022-08-26T10:26:38.369Z,12.77
2022-08-26T10:29:23.365Z,11.82
2022-08-26T10:31:58.742Z,12.48
2022-08-26T10:34:31.414Z,13.20
2022-08-26T10:37:14.271Z,11.15
2022-08-26T10:39:59.033Z,11.32
2022-08-26T10:42:38.750Z,11.73
2022-08-26T10:45:14.880Z,12.80
2022-08-26T10:47:50.201Z,13.52
2022-08-26T10:50:18.964Z,9.80
2022-08-26T10:52:52.620Z,12.60
2022-08-26T10:55:34.967Z,13.50
2022-08-26T10:58:26.295Z,15.57
2022-08-26T11:01:23.975Z,13.00
2022-08-26T11:04:19.539Z,9.68
2022-08-26T11:07:09.839Z,13.43
2022-08-26T11:09:46.195Z,17.58
2022-08-26T11:12:35.633Z,12.65
2022-08-26T11:15:34.304Z,14.05
2022-08-26T11:18:07.828Z,10.82
2022-08-26T11:20:47.103Z,12.05
2022-08-26T11:23:22.351Z,12.90
2022-08-26T11:26:10.081Z,12.50
2022-08-26T11:28:46.197Z,13.77
2022-08-26T11:31:26.805Z,13.63
2022-08-26T11:33:59.470Z,15.68
2022-08-26T11:36:36.425Z,14.27
2022-08-26T11:39:30.424Z,11.73
2022-08-26T11:42:28.395Z,13.98
2022-08-26T11:44:58.189Z,17.17
2022-08-26T11:50:18.762Z,18.95
2022-08-26T11:53:04.340Z,12.95
2022-08-26T11:55:41.813Z,14.95
2022-08-26T11:58:12.916Z,12.40
2022-08-26T12:00:53.920Z,11.02
2022-08-26T12:03:29.108Z,12.23
2022-08-26T12:05:57.288Z,11.27
2022-08-26T12:08:28.142Z,11.93
2022-08-26T12:11:06.982Z,14.02
2022-08-26T12:13:37.282Z,13.57
2022-08-26T12:16:06.222Z,12.73
2022-08-26T12:18:38.342Z,13.15
2022-08-26T12:21:22.307Z,13.35
2022-08-26T12:24:00.831Z,15.85
2022-08-26T12:26:35.685Z,15.15
2022-08-26T12:29:27.112Z,10.80
2022-08-26T12:32:11.567Z,14.48
2022-08-26T12:34:41.007Z,14.02
2022-08-26T12:37:12.003Z,14.52
2022-08-26T12:39:42.330Z,10.07
2022-08-26T12:44:53.200Z,13.82
2022-08-26T12:47:42.377Z,15.60
2022-08-26T12:50:31.063Z,14.48
2022-08-26T12:53:01.003Z,11.10
2022-08-26T12:55:56.175Z,11.65
2022-08-26T12:58:33.049Z,14.18
2022-08-26T13:01:06.598Z,14.38
2022-08-26T13:03:34.167Z,12.07
2022-08-26T13:06:22.562Z,13.77
2022-08-26T13:09:09.246Z,12.57
2022-08-26T13:11:39.770Z,10.80
2022-08-26T13:14:12.911Z,16.40
2022-08-26T13:16:49.309Z,12.30
2022-08-26T13:19:22.777Z,15.85
2022-08-26T13:21:55.417Z,13.45
2022-08-26T13:24:28.665Z,11.23
2022-08-26T13:26:56.418Z,15.18
2022-08-26T13:29:23.915Z,11.98
2022-08-26T13:31:52.365Z,9.10
2022-08-26T13:34:21.596Z,13.40
2022-08-26T13:36:51.545Z,36.38
2022-08-26T13:39:18.982Z,35.50
2022-08-26T13:41:46.608Z,43.72
2022-08-26T13:44:14.260Z,79.88
2022-08-26T13:46:41.824Z,39.40
2022-08-26T13:49:10.082Z,26.15
2022-08-26T13:51:38.034Z,30.02
2022-08-26T13:54:05.854Z,17.83
2022-08-26T13:56:34.174Z,23.52
2022-08-26T13:59:02.179Z,16.30
2022-08-26T14:01:30.959Z,22.38
2022-08-26T14:03:58.485Z,21.48
2022-08-26T14:06:26.159Z,14.55
2022-08-26T14:08:53.491Z,18.75
2022-08-26T14:11:23.144Z,19.83
2022-08-26T14:13:52.431Z,15.82
2022-08-26T14:16:31.561Z,19.80
2022-08-26T14:19:03.714Z,15.38
2022-08-26T14:21:33.874Z,18.00
2022-08-26T14:24:01.357Z,22.90
2022-08-26T14:26:30.100Z,18.55
2022-08-26T14:28:59.729Z,10.93
2022-08-26T14:31:45.920Z,12.57
2022-08-26T14:34:14.268Z,12.27
2022-08-26T14:36:42.477Z,14.40
2022-08-26T14:39:12.514Z,10.05
2022-08-26T14:41:54.035Z,12.50
2022-08-26T14:44:27.719Z,11.52
2022-08-26T14:46:55.886Z,12.07
2022-08-26T14:49:27.335Z,10.15
2022-08-26T14:51:55.396Z,11.95
2022-08-26T14:54:22.636Z,11.02
2022-08-26T14:56:51.979Z,8.27
2022-08-26T14:59:21.856Z,13.63
2022-08-26T15:01:50.639Z,13.57
2022-08-26T15:04:19.578Z,14.25
2022-08-26T15:06:48.093Z,9.75
2022-08-26T15:09:16.751Z,12.32
2022-08-26T15:11:45.157Z,13.25
2022-08-26T15:14:19.333Z,10.00
2022-08-26T15:16:52.950Z,19.65
2022-08-26T15:19:21.551Z,11.50
2022-08-26T15:21:50.474Z,13.68
2022-08-26T15:24:20.806Z,11.43
2022-08-26T15:26:50.101Z,12.53
2022-08-26T15:29:19.097Z,11.05
2022-08-26T15:31:47.826Z,9.35
2022-08-26T15:34:17.328Z,12.27
2022-08-26T15:36:46.885Z,10.43
2022-08-26T15:39:16.626Z,14.23
2022-08-26T15:41:45.632Z,12.63
2022-08-26T15:44:17.790Z,13.40
2022-08-26T15:46:46.752Z,10.85
2022-08-26T15:49:18.442Z,9.57
2022-08-26T15:51:50.337Z,16.70
2022-08-26T15:54:21.275Z,15.15
2022-08-26T15:56:51.752Z,14.35
2022-08-26T15:59:21.719Z,14.10
2022-08-26T16:01:49.575Z,11.85
2022-08-26T16:04:18.727Z,9.32
2022-08-26T16:06:50.225Z,15.57
2022-08-26T16:09:18.395Z,15.00
2022-08-26T16:11:51.875Z,10.57
2022-08-26T16:14:20.584Z,16.33
2022-08-26T16:16:49.906Z,13.15
2022-08-26T16:19:18.620Z,11.55
2022-08-26T16:21:48.084Z,13.60
2022-08-26T16:24:16.914Z,10.73
2022-08-26T16:26:45.960Z,12.95
2022-08-26T16:29:15.703Z,16.20
2022-08-26T16:31:44.475Z,11.70
2022-08-26T16:34:13.075Z,14.52
2022-08-26T16:36:41.871Z,12.07
2022-08-26T16:39:10.600Z,10.55
2022-08-26T16:41:39.223Z,18.45
2022-08-26T16:44:08.996Z,13.40
2022-08-26T16:46:39.661Z,14.02
2022-08-26T16:49:08.995Z,13.43
2022-08-26T16:51:37.968Z,13.95
2022-08-26T16:54:08.254Z,11.07
2022-08-26T16:56:38.195Z,14.13
2022-08-26T16:59:07.746Z,15.85
2022-08-26T17:01:37.593Z,10.73
2022-08-26T17:04:06.856Z,11.00
2022-08-26T17:06:54.140Z,11.25
2022-08-26T17:09:22.170Z,15.15
2022-08-26T17:11:51.260Z,12.77
2022-08-26T17:14:20.324Z,17.08
2022-08-26T17:16:53.548Z,11.60
2022-08-26T17:19:22.728Z,14.60
2022-08-26T17:21:51.771Z,13.52
2022-08-26T17:24:20.280Z,14.57
2022-08-26T17:26:50.011Z,13.80
2022-08-26T17:29:24.324Z,19.00
2022-08-26T17:31:52.063Z,14.20
2022-08-26T17:34:20.895Z,13.45
2022-08-26T17:36:50.058Z,12.35
2022-08-26T17:39:18.937Z,17.05
2022-08-26T17:41:47.756Z,17.13
2022-08-26T17:44:16.601Z,17.35
2022-08-26T17:46:44.743Z,15.85
2022-08-26T17:49:12.372Z,14.88
2022-08-26T17:51:41.397Z,16.75
2022-08-26T17:54:09.132Z,19.42
2022-08-26T17:56:36.819Z,16.70
2022-08-26T17:59:07.591Z,14.70
2022-08-26T18:01:35.666Z,17.45
2022-08-26T18:04:05.053Z,15.65
2022-08-26T18:06:37.069Z,14.20
2022-08-26T18:09:25.549Z,16.83
2022-08-26T18:11:53.348Z,21.20
2022-08-26T18:14:22.932Z,18.15
2022-08-26T18:16:51.004Z,17.80
2022-08-26T18:19:18.773Z,16.98
2022-08-26T18:21:47.687Z,22.15
2022-08-26T18:24:16.546Z,15.88
2022-08-26T18:26:48.929Z,17.92
2022-08-26T18:29:18.739Z,21.40
2022-08-26T18:31:48.552Z,19.85
2022-08-26T18:34:17.160Z,18.05
2022-08-26T18:36:46.040Z,16.58
2022-08-26T18:39:15.867Z,19.35
2022-08-26T18:41:46.484Z,22.73
2022-08-26T18:44:16.460Z,17.58
2022-08-26T18:46:45.848Z,17.25
2022-08-26T18:49:15.666Z,21.33
2022-08-26T18:52:03.514Z,20.38
2022-08-26T18:54:32.637Z,21.45
2022-08-26T18:57:02.823Z,19.30
2022-08-26T18:59:31.463Z,22.15
2022-08-26T19:02:00.699Z,21.17
2022-08-26T19:04:29.638Z,19.08
2022-08-26T19:06:58.430Z,17.10
2022-08-26T19:09:28.126Z,14.20
2022-08-26T19:11:57.399Z,11.35
2022-08-26T19:14:27.521Z,12.30
2022-08-26T19:16:56.573Z,13.57
2022-08-26T19:19:25.372Z,12.07
2022-08-26T19:21:54.584Z,9.50
2022-08-26T19:24:27.351Z,15.07
2022-08-26T19:26:58.598Z,10.32
2022-08-26T19:29:28.530Z,9.43
2022-08-26T19:31:57.802Z,11.82
2022-08-26T19:34:26.498Z,13.65
2022-08-26T19:36:56.907Z,11.10
2022-08-26T19:39:26.055Z,10.73
2022-08-26T19:41:54.855Z,14.13
2022-08-26T19:44:41.926Z,17.27
2022-08-26T19:47:13.036Z,18.05
2022-08-26T19:49:41.031Z,15.35
2022-08-26T19:52:09.043Z,19.00
2022-08-26T19:54:36.771Z,16.95
2022-08-26T19:57:05.315Z,17.67
2022-08-26T19:59:36.160Z,15.02
2022-08-26T20:02:08.641Z,16.48
2022-08-26T20:04:39.243Z,18.92
2022-08-26T20:07:08.672Z,17.02
2022-08-26T20:09:36.675Z,17.73
2022-08-26T20:12:06.076Z,18.83
2022-08-26T20:14:34.449Z,16.48
2022-08-26T20:17:03.565Z,13.73
2022-08-26T20:19:51.076Z,18.20
2022-08-26T20:22:20.473Z,13.32
2022-08-26T20:24:48.545Z,11.45
2022-08-26T20:27:16.454Z,13.32
2022-08-26T20:29:44.191Z,13.80
2022-08-26T20:32:12.261Z,11.70
2022-08-26T20:34:40.205Z,15.95
2022-08-26T20:37:08.581Z,13.77
2022-08-26T20:39:36.583Z,21.17
2022-08-26T20:42:05.235Z,10.38
2022-08-26T20:44:35.228Z,18.42
2022-08-26T20:47:03.396Z,13.73
2022-08-26T20:49:33.183Z,13.30
2022-08-26T20:52:03.061Z,15.13
2022-08-26T20:54:31.192Z,16.10
2022-08-26T20:56:59.532Z,14.38
2022-08-26T20:59:27.430Z,11.15
2022-08-26T21:01:55.336Z,11.63
2022-08-26T21:04:24.417Z,14.75
2022-08-26T21:06:54.424Z,12.00
2022-08-26T21:09:23.526Z,16.67
2022-08-26T21:11:51.911Z,14.00
2022-08-26T21:14:20.681Z,12.65
2022-08-26T21:16:50.951Z,11.90
2022-08-26T21:19:19.424Z,12.18
2022-08-26T21:21:48.579Z,11.50
2022-08-26T21:24:36.272Z,13.35
2022-08-26T21:27:03.978Z,15.93
2022-08-26T21:29:32.832Z,12.45
2022-08-26T21:32:00.699Z,14.00
2022-08-26T21:34:28.553Z,16.10
2022-08-26T21:36:56.298Z,17.02
2022-08-26T21:39:24.136Z,15.80
2022-08-26T21:42:11.401Z,13.25
2022-08-26T21:44:39.207Z,19.75
2022-08-26T21:47:07.116Z,15.98
2022-08-26T21:49:34.789Z,14.07
2022-08-26T21:52:04.588Z,10.73
2022-08-26T21:54:32.673Z,12.27
2022-08-26T21:57:00.524Z,15.35
2022-08-26T21:59:28.375Z,16.00
2022-08-26T22:01:56.920Z,11.68
2022-08-26T22:04:25.479Z,14.25
2022-08-26T22:06:57.554Z,11.85
2022-08-26T22:09:26.293Z,17.08
2022-08-26T22:11:56.862Z,18.33
2022-08-26T22:14:30.501Z,11.48
2022-08-26T22:16:59.680Z,15.45
2022-08-26T22:19:27.489Z,16.42
2022-08-26T22:22:14.486Z,19.23
2022-08-26T22:24:43.373Z,12.32
2022-08-26T22:27:12.016Z,14.50
2022-08-26T22:29:40.041Z,11.07
2022-08-26T22:32:08.153Z,14.95
2022-08-26T22:34:35.788Z,14.23
2022-08-26T22:37:03.623Z,15.70
2022-08-26T22:39:31.516Z,12.70
2022-08-26T22:41:59.204Z,9.80
2022-08-26T22:44:26.895Z,12.20
2022-08-26T22:46:56.777Z,12.13
2022-08-26T22:49:24.989Z,12.43
2022-08-26T22:51:53.909Z,10.90
2022-08-26T22:54:23.512Z,13.45
2022-08-26T22:56:51.329Z,11.73
2022-08-26T22:59:20.276Z,11.60
2022-08-26T23:01:48.183Z,11.45
2022-08-26T23:04:16.077Z,13.80
2022-08-26T23:06:47.573Z,12.65
2022-08-26T23:09:18.254Z,16.23
2022-08-26T23:11:47.495Z,14.70
2022-08-26T23:14:16.440Z,14.40
2022-08-26T23:16:44.894Z,10.57
2022-08-26T23:19:13.609Z,15.30
2022-08-26T23:21:41.304Z,17.65
2022-08-26T23:24:09.761Z,14.77
2022-08-26T23:26:38.293Z,13.25
2022-08-26T23:29:06.873Z,11.60
2022-08-26T23:31:35.062Z,13.27
2022-08-26T23:34:21.570Z,10.30
2022-08-26T23:36:49.903Z,11.07
2022-08-26T23:39:17.666Z,12.95
2022-08-26T23:41:45.430Z,12.38
2022-08-26T23:44:13.451Z,14.43
2022-08-26T23:46:41.358Z,11.45
2022-08-26T23:49:09.578Z,16.30
2022-08-26T23:51:57.147Z,14.13
2022-08-26T23:54:24.949Z,19.08
2022-08-26T23:56:52.747Z,13.18
2022-08-26T23:59:20.757Z,12.85
